createdAt,value
2018-08-11T05:02:16.178Z,89.3
2018-08-11T05:02:36.415Z,89.1
2018-08-11T05:02:56.630Z,89.2
2018-08-11T05:03:16.784Z,89.8
2018-08-11T05:03:37.018Z,89.7
2018-08-11T05:03:57.212Z,89.4
2018-08-11T05:04:17.402Z,89.1
2018-08-11T05:04:37.650Z,89.3
2018-08-11T05:04:57.903Z,89.1
2018-08-11T05:05:18.135Z,89.2
2018-08-11T05:05:38.341Z,89.3
2018-08-11T05:05:58.624Z,88.8
2018-08-11T05:06:18.828Z,88.9
2018-08-11T05:13:44.243Z,88.7
2018-08-11T05:14:04.458Z,88.9
2018-08-11T05:14:24.660Z,88.7
2018-08-11T05:14:44.873Z,88.7
2018-08-11T05:15:05.017Z,89.4
2018-08-11T05:15:25.182Z,89.5
2018-08-11T05:15:45.368Z,89.8
2018-08-11T05:16:05.568Z,89.6
2018-08-11T05:16:25.724Z,89.3
2018-08-11T05:16:45.887Z,89.6
2018-08-11T05:17:06.038Z,89.7
2018-08-11T05:17:26.179Z,89.3
2018-08-11T05:17:46.352Z,89.1
2018-08-11T05:18:06.499Z,89.1
2018-08-11T05:18:26.671Z,89.3
2018-08-11T05:27:32.643Z,89.3
2018-08-11T05:27:52.775Z,89.2
2018-08-11T05:28:12.936Z,89.2
2018-08-11T05:28:33.108Z,89.3
2018-08-11T05:28:53.297Z,88.6
2018-08-11T05:29:13.444Z,88.5
2018-08-11T05:29:33.649Z,88.5
2018-08-11T05:29:53.777Z,89.2
2018-08-11T05:30:13.971Z,89
2018-08-11T05:30:34.121Z,89
2018-08-11T05:30:54.259Z,89
2018-08-11T05:31:14.410Z,89.1
2018-08-11T05:31:34.926Z,89.2
2018-08-11T05:31:55.910Z,89.5
2018-08-11T05:32:16.487Z,88.7
2018-08-11T05:32:36.637Z,89.4
2018-08-11T05:32:56.775Z,89.2
2018-08-11T05:33:17.041Z,89.2
2018-08-11T05:33:37.212Z,89.4
2018-08-11T05:33:57.359Z,89
2018-08-11T05:34:17.519Z,89.3
2018-08-11T05:34:37.678Z,89.1
2018-08-11T05:40:24.393Z,89.2
2018-08-11T05:40:44.569Z,89.5
2018-08-11T05:41:04.874Z,90.1
2018-08-11T05:41:25.186Z,89.2
2018-08-11T05:41:45.623Z,89.2
2018-08-11T05:42:05.782Z,89.3
2018-08-11T05:42:26.093Z,89.2
2018-08-11T05:42:46.476Z,89.4
2018-08-11T05:43:06.753Z,88.7
2018-08-11T05:43:26.934Z,88.8
2018-08-11T05:43:47.161Z,88.9
2018-08-11T05:44:07.364Z,88.3
2018-08-11T05:44:27.559Z,88.9
2018-08-11T05:44:47.779Z,88.2
2018-08-11T05:45:07.930Z,88.8
2018-08-11T05:45:28.121Z,88.5
2018-08-11T05:45:48.281Z,88.7
2018-08-11T05:46:08.462Z,88.9
2018-08-11T05:46:28.637Z,88.2
2018-08-11T05:46:48.793Z,88.9
2018-08-11T05:47:09.060Z,88.7
2018-08-11T05:47:29.247Z,88.7
2018-08-11T05:47:49.463Z,88.8
2018-08-11T05:48:09.660Z,88.8
2018-08-11T05:48:29.869Z,88.9
2018-08-11T05:48:50.101Z,89.3
2018-08-11T05:49:10.311Z,89
2018-08-11T05:49:30.489Z,89.4
2018-08-11T05:49:50.691Z,89.2
2018-08-11T05:50:10.868Z,89.5
2018-08-11T05:50:31.017Z,89.1
2018-08-11T05:50:51.238Z,89.2
2018-08-11T05:51:11.433Z,89.3
2018-08-11T05:51:31.611Z,89.3
2018-08-11T05:51:51.773Z,89.4
2018-08-11T05:52:11.969Z,89.4
2018-08-11T05:52:32.179Z,89.4
2018-08-11T05:52:52.475Z,88.9
2018-08-11T05:53:12.721Z,88.9
2018-08-11T05:53:32.904Z,88.9
2018-08-11T05:53:53.621Z,88.4
2018-08-11T05:54:13.987Z,88.8
2018-08-11T05:54:34.190Z,88.6
2018-08-11T05:54:54.415Z,88.9
2018-08-11T05:55:14.722Z,88.9
2018-08-11T05:55:34.946Z,88.7
2018-08-11T06:00:49.645Z,89.3
2018-08-11T06:01:09.893Z,89.3
2018-08-11T06:01:30.079Z,89.8
2018-08-11T06:01:50.318Z,90
2018-08-11T06:02:10.591Z,90.1
2018-08-11T06:02:30.867Z,90.4
2018-08-11T06:02:51.024Z,90.6
2018-08-11T06:03:11.191Z,90.4
2018-08-11T06:03:31.403Z,90.3
2018-08-11T06:03:51.695Z,90.6
2018-08-11T06:04:11.875Z,90.1
2018-08-11T06:04:32.095Z,89.8
2018-08-11T06:04:52.267Z,89.6
2018-08-11T06:05:12.482Z,89.2
2018-08-11T06:05:32.660Z,89.4
2018-08-11T06:05:52.838Z,89.2
2018-08-11T06:12:01.969Z,89.9
2018-08-11T06:12:22.131Z,89.9
2018-08-11T06:12:42.324Z,89.9
2018-08-11T06:13:02.509Z,89.9
2018-08-11T06:13:22.694Z,89.9
2018-08-11T06:13:42.916Z,89.8
2018-08-11T06:14:03.182Z,89.8
2018-08-11T06:14:23.446Z,89.9
2018-08-11T06:14:43.922Z,89.9
2018-08-11T06:15:04.156Z,89.9
2018-08-11T06:15:24.328Z,89.9
2018-08-11T06:15:44.588Z,89.9
2018-08-11T06:16:05.013Z,89.3
2018-08-11T06:16:25.227Z,89.3
2018-08-11T06:16:45.420Z,89.1
2018-08-11T06:17:05.690Z,89.2
2018-08-11T06:17:25.902Z,89.3
2018-08-11T06:17:46.144Z,89.2
2018-08-11T06:18:06.342Z,89.3
2018-08-11T06:18:26.583Z,89.6
2018-08-11T06:18:46.855Z,89.3
2018-08-11T06:19:07.073Z,89.2
2018-08-11T06:19:27.419Z,89.4
2018-08-11T06:19:47.729Z,89.3
2018-08-11T06:20:07.995Z,89.2
2018-08-11T06:20:28.277Z,89.1
2018-08-11T06:20:48.524Z,89.3
2018-08-11T06:21:08.849Z,89.3
2018-08-11T06:21:29.398Z,89.3
2018-08-11T06:21:49.658Z,89.2
2018-08-11T06:22:09.909Z,89.5
2018-08-11T06:22:30.202Z,89.5
2018-08-11T06:22:50.497Z,89.4
2018-08-11T06:23:10.677Z,89.3
2018-08-11T06:23:31.024Z,89.3
2018-08-11T06:23:51.292Z,89.2
2018-08-11T06:24:11.485Z,89.3
2018-08-11T06:24:31.691Z,89.2
2018-08-11T06:24:51.915Z,89.5
2018-08-11T06:25:12.123Z,89.4
2018-08-11T06:25:32.358Z,89.5
2018-08-11T06:25:52.589Z,89.1
2018-08-11T06:26:12.815Z,89.3
2018-08-11T06:26:32.972Z,89.4
2018-08-11T06:26:53.165Z,89.3
2018-08-11T06:27:13.334Z,89.7
2018-08-11T06:27:33.519Z,89.1
2018-08-11T06:27:53.703Z,89.5
2018-08-11T06:28:13.916Z,89.1
2018-08-11T06:28:34.136Z,89.7
2018-08-11T06:28:54.356Z,89.3
2018-08-11T06:29:14.581Z,89.7
2018-08-11T06:29:34.918Z,90.1
2018-08-11T06:29:55.183Z,90.7
2018-08-11T06:30:15.398Z,90.4
2018-08-11T06:30:35.555Z,90.4
2018-08-11T06:30:55.758Z,90
2018-08-11T06:31:15.971Z,90.4
2018-08-11T06:31:36.396Z,90.7
2018-08-11T06:31:56.687Z,90.6
2018-08-11T06:32:16.951Z,90.7
2018-08-11T06:32:37.052Z,90.8
2018-08-11T06:32:57.233Z,90.2
2018-08-11T06:33:17.474Z,89.9
2018-08-11T06:33:37.684Z,89.8
2018-08-11T06:33:57.915Z,90.1
2018-08-11T06:34:18.134Z,90.3
2018-08-11T06:34:38.295Z,90
2018-08-11T06:34:58.430Z,89.9
2018-08-11T06:35:18.590Z,90.3
2018-08-11T06:35:38.788Z,90
2018-08-11T06:35:59.002Z,89.8
2018-08-11T06:36:19.246Z,89.4
2018-08-11T06:36:39.433Z,89.6
2018-08-11T06:36:59.588Z,89.4
2018-08-11T06:37:19.757Z,89.8
2018-08-11T06:37:39.977Z,89.5
2018-08-11T06:38:00.157Z,90.1
2018-08-11T06:38:20.317Z,89.5
2018-08-11T06:38:40.447Z,90.2
2018-08-11T06:39:00.666Z,90.3
2018-08-11T06:39:20.864Z,90.5
2018-08-11T06:39:41.068Z,90.9
2018-08-11T06:40:01.275Z,90.3
2018-08-11T06:40:21.507Z,89.9
2018-08-11T06:40:41.848Z,90
2018-08-11T06:41:02.682Z,89.9
2018-08-11T06:41:22.650Z,90.3
2018-08-11T06:41:42.865Z,90.2
2018-08-11T06:42:03.120Z,90.1
2018-08-11T06:42:23.304Z,89.8
2018-08-11T06:42:43.470Z,89.6
2018-08-11T06:43:03.627Z,90
2018-08-11T06:43:23.915Z,89.9
2018-08-11T06:43:44.116Z,90.1
2018-08-11T06:44:04.265Z,90.2
2018-08-11T06:44:24.449Z,89.5
2018-08-11T06:44:44.647Z,89.6
2018-08-11T06:45:04.868Z,89.5
2018-08-11T06:45:25.077Z,89.4
2018-08-11T06:45:45.284Z,89.4
2018-08-11T06:46:05.440Z,89.3
2018-08-11T06:46:25.678Z,89.9
2018-08-11T06:46:45.901Z,89.9
2018-08-11T06:47:06.360Z,89.7
2018-08-11T06:47:26.582Z,90.8
2018-08-11T06:47:46.778Z,90.6
2018-08-11T06:48:07.029Z,90.7
2018-08-11T06:48:27.223Z,90.8
2018-08-11T06:48:47.501Z,90.8
2018-08-11T06:49:07.765Z,90.8
2018-08-11T06:49:28.218Z,90.5
2018-08-11T06:49:48.394Z,90.8
2018-08-11T06:50:08.615Z,89.6
2018-08-11T06:50:28.962Z,89.6
2018-08-11T06:50:49.241Z,89.2
2018-08-11T06:51:09.483Z,89
2018-08-11T06:51:29.759Z,89
2018-08-11T06:51:50.090Z,88.9
2018-08-11T06:52:10.369Z,88.8
2018-08-11T06:52:30.709Z,89
2018-08-11T06:52:50.865Z,89
2018-08-11T06:53:11.212Z,88.8
2018-08-11T06:53:31.476Z,88.7
2018-08-11T06:53:52.291Z,88.9
2018-08-11T06:54:12.483Z,88.9
2018-08-11T06:54:32.771Z,89.6
2018-08-11T06:54:52.979Z,89.5
2018-08-11T06:55:13.230Z,89.7
2018-08-11T06:55:33.467Z,89.6
2018-08-11T06:55:53.724Z,89.5
2018-08-11T06:56:13.922Z,88.9
2018-08-11T06:56:34.215Z,89.3
2018-08-11T06:56:54.350Z,89.5
2018-08-11T06:57:14.632Z,89.4
2018-08-11T06:57:34.921Z,89.4
2018-08-11T06:57:55.191Z,89.3
2018-08-11T06:58:15.381Z,89.5
2018-08-11T06:58:35.616Z,89.6
2018-08-11T06:58:55.904Z,89.3
2018-08-11T06:59:16.179Z,89.3
2018-08-11T06:59:36.464Z,89.2
2018-08-11T06:59:56.755Z,89.4
2018-08-11T07:00:17.094Z,89.5
2018-08-11T07:00:37.323Z,89.2
2018-08-11T07:00:57.515Z,89.7
2018-08-11T07:01:17.809Z,89.4
2018-08-11T07:01:38.025Z,89.7
2018-08-11T07:01:58.331Z,89.1
2018-08-11T07:02:18.543Z,88.8
2018-08-11T07:02:38.769Z,89.5
2018-08-11T07:02:59.061Z,89.6
2018-08-11T07:03:19.343Z,89.5
2018-08-11T07:03:40.059Z,89.4
2018-08-11T07:04:00.394Z,89.8
2018-08-11T07:04:21.234Z,89.5
2018-08-11T07:04:41.517Z,89.6
2018-08-11T07:05:02.369Z,90
2018-08-11T07:05:22.532Z,90.3
2018-08-11T07:05:42.903Z,89.9
2018-08-11T07:06:03.169Z,90.1
2018-08-11T07:06:23.454Z,90.2
2018-08-11T07:06:43.735Z,89.8
2018-08-11T07:07:04.020Z,89.3
2018-08-11T07:07:24.155Z,89.3
2018-08-11T07:07:44.376Z,89.6
2018-08-11T07:08:04.543Z,89.6
2018-08-11T07:08:24.741Z,89.7
2018-08-11T07:08:44.949Z,89.6
2018-08-11T07:09:05.122Z,89.6
2018-08-11T07:09:25.370Z,89.1
2018-08-11T07:09:45.563Z,89.6
2018-08-11T07:10:05.745Z,89.3
2018-08-11T07:10:25.925Z,90.1
2018-08-11T07:10:46.120Z,90
2018-08-11T07:11:06.353Z,89.6
2018-08-11T07:11:26.614Z,89.3
2018-08-11T07:11:46.878Z,89.8
2018-08-11T07:12:07.101Z,89.5
2018-08-11T07:12:27.470Z,89.3
2018-08-11T07:12:47.785Z,89.5
2018-08-11T07:13:08.006Z,89.1
2018-08-11T07:13:28.182Z,89.7
2018-08-11T07:13:49.410Z,89
2018-08-11T07:14:09.687Z,89.3
2018-08-11T07:14:29.961Z,89.3
2018-08-11T07:14:50.247Z,88.5
2018-08-11T07:15:10.481Z,88.5
2018-08-11T07:15:31.059Z,88.7
2018-08-11T07:15:51.315Z,88.7
2018-08-11T07:16:11.506Z,88.4
2018-08-11T07:16:31.700Z,87.8
2018-08-11T07:16:52.001Z,88.2
2018-08-11T07:17:12.390Z,88.5
2018-08-11T07:17:32.665Z,88.6
2018-08-11T07:17:52.979Z,87.7
2018-08-11T07:18:13.231Z,88.3
2018-08-11T07:18:33.532Z,88
2018-08-11T07:18:53.753Z,88.3
2018-08-11T07:19:14.033Z,88
2018-08-11T07:19:34.303Z,88
2018-08-11T07:19:54.447Z,88.2
2018-08-11T07:20:14.466Z,88.5
2018-08-11T07:20:34.637Z,88.4
2018-08-11T07:20:54.890Z,88.3
2018-08-11T07:21:15.210Z,88.5
2018-08-11T07:21:35.603Z,88.4
2018-08-11T07:21:55.837Z,88
2018-08-11T07:22:16.079Z,88.1
2018-08-11T07:22:36.234Z,87.9
2018-08-11T07:22:56.507Z,87.9
2018-08-11T07:23:16.713Z,88.3
2018-08-11T07:23:36.863Z,88.3
2018-08-11T07:23:57.090Z,88.1
2018-08-11T07:24:17.241Z,87.8
2018-08-11T07:24:37.392Z,88.3
2018-08-11T07:24:57.577Z,88.1
2018-08-11T07:25:17.795Z,88.1
2018-08-11T07:25:37.966Z,89.2
2018-08-11T07:25:58.170Z,89.4
2018-08-11T07:26:18.426Z,89
2018-08-11T07:26:38.605Z,88.6
2018-08-11T07:26:58.775Z,88.3
2018-08-11T07:27:18.923Z,86.2
2018-08-11T07:27:39.137Z,86.2
2018-08-11T07:27:59.359Z,86.3
2018-08-11T07:28:19.370Z,86.9
2018-08-11T07:28:39.657Z,87.3
2018-08-11T07:28:59.802Z,87.9
2018-08-11T07:29:20.075Z,88.3
2018-08-11T07:29:40.399Z,87.6
2018-08-11T07:30:00.604Z,87.1
2018-08-11T07:30:20.944Z,87
2018-08-11T07:30:41.198Z,87.2
2018-08-11T07:31:01.495Z,87.1
2018-08-11T07:31:21.758Z,86.3
2018-08-11T07:31:42.062Z,86.4
2018-08-11T07:32:02.336Z,86.5
2018-08-11T07:32:22.607Z,86.3
2018-08-11T07:32:42.876Z,86.6
2018-08-11T07:33:03.036Z,86.2
2018-08-11T07:33:23.251Z,86.5
2018-08-11T07:33:43.283Z,86.5
2018-08-11T07:34:04.489Z,86.3
2018-08-11T07:34:24.784Z,85.7
2018-08-11T07:34:45.050Z,86.1
2018-08-11T07:35:05.256Z,85.6
2018-08-11T07:35:25.469Z,85.7
2018-08-11T07:35:45.777Z,85.2
2018-08-11T07:36:06.233Z,84.1
2018-08-11T07:36:26.553Z,84.9
2018-08-11T07:36:46.774Z,84.8
2018-08-11T07:37:06.929Z,84.8
2018-08-11T07:37:27.155Z,85.7
2018-08-11T07:37:47.442Z,86
2018-08-11T07:38:07.760Z,86.3
2018-08-11T07:38:27.991Z,85.8
2018-08-11T07:38:48.257Z,85.8
2018-08-11T07:39:08.534Z,85.8
2018-08-11T07:39:28.948Z,85.2
2018-08-11T07:39:49.252Z,84.6
2018-08-11T07:40:09.531Z,84.6
2018-08-11T07:40:29.799Z,84.6
2018-08-11T07:40:50.289Z,84.6
2018-08-11T07:41:10.559Z,84
2018-08-11T07:41:30.847Z,84.3
2018-08-11T07:41:51.273Z,84.2
2018-08-11T07:42:11.465Z,84.2
2018-08-11T07:42:31.738Z,84.2
2018-08-11T07:42:51.926Z,84.2
2018-08-11T07:43:12.359Z,84.2
2018-08-11T07:43:32.681Z,84.2
2018-08-11T07:43:53.004Z,84.4
2018-08-11T07:44:13.227Z,84.2
2018-08-11T07:44:33.408Z,83.8
2018-08-11T07:44:53.645Z,83.5
2018-08-11T07:45:13.869Z,84.4
2018-08-11T07:45:34.130Z,85.4
2018-08-11T07:45:54.394Z,84.9
2018-08-11T07:46:14.705Z,83.7
2018-08-11T07:46:34.969Z,83
2018-08-11T07:46:55.155Z,83.3
2018-08-11T07:47:15.344Z,81.4
2018-08-11T07:47:35.737Z,81.1
2018-08-11T07:47:56.949Z,81.6
2018-08-11T07:48:17.178Z,81.6
2018-08-11T07:48:37.373Z,81.7
2018-08-11T07:48:57.608Z,81.7
2018-08-11T07:49:17.967Z,81.8
2018-08-11T07:49:38.173Z,81.9
2018-08-11T07:49:58.423Z,82.3
2018-08-11T07:50:18.800Z,82.7
2018-08-11T07:50:39.008Z,82.4
2018-08-11T07:50:59.275Z,82.5
2018-08-11T07:51:19.558Z,82.9
2018-08-11T07:51:39.800Z,83
2018-08-11T07:52:00.043Z,81.9
2018-08-11T07:52:21.150Z,82
2018-08-11T07:52:41.412Z,81
2018-08-11T07:53:01.831Z,80.8
2018-08-11T07:53:22.275Z,81.2
2018-08-11T07:53:42.486Z,80.4
2018-08-11T07:54:02.705Z,80.8
2018-08-11T07:54:23.160Z,81.7
2018-08-11T07:54:43.363Z,81.7
2018-08-11T07:55:03.572Z,81.9
2018-08-11T07:55:23.952Z,81.5
2018-08-11T07:55:44.142Z,80.8
2018-08-11T07:56:04.471Z,81.1
2018-08-11T07:56:24.613Z,81.4
2018-08-11T07:56:44.861Z,81.7
2018-08-11T07:57:05.692Z,81.7
2018-08-11T07:57:26.073Z,80.9
2018-08-11T07:57:46.316Z,80.6
2018-08-11T07:58:06.630Z,81.1
2018-08-11T07:58:26.825Z,80.3
2018-08-11T07:58:47.876Z,80.8
2018-08-11T07:59:08.419Z,81.2
2018-08-11T07:59:28.607Z,81
2018-08-11T07:59:48.969Z,81
2018-08-11T08:00:09.150Z,81.1
2018-08-11T08:00:29.327Z,80
2018-08-11T08:00:49.711Z,79.8
2018-08-11T08:01:09.983Z,79.7
2018-08-11T08:01:30.422Z,79.7
2018-08-11T08:01:50.714Z,79.9
2018-08-11T08:02:10.975Z,79.8
2018-08-11T08:02:31.134Z,79.9
2018-08-11T08:02:51.410Z,80.2
2018-08-11T08:03:11.556Z,80.4
2018-08-11T08:03:31.877Z,80.8
2018-08-11T08:03:52.204Z,81
2018-08-11T08:04:12.787Z,80.9
2018-08-11T08:04:33.047Z,81
2018-08-11T08:04:53.343Z,80
2018-08-11T08:05:13.638Z,81.1
2018-08-11T08:05:34.065Z,80.4
2018-08-11T08:05:54.408Z,80.4
2018-08-11T08:06:14.685Z,80.5
2018-08-11T08:06:35.116Z,80.3
2018-08-11T08:06:56.400Z,80.4
2018-08-11T08:07:16.872Z,79.8
2018-08-11T08:07:37.778Z,79.3
2018-08-11T08:07:58.114Z,79.1
2018-08-11T08:08:18.363Z,78.5
2018-08-11T08:08:38.789Z,78.2
2018-08-11T08:08:59.080Z,78.1
2018-08-11T08:09:19.090Z,78.5
2018-08-11T08:09:39.931Z,78.2
2018-08-11T08:10:00.215Z,77.1
2018-08-11T08:10:20.675Z,76
2018-08-11T08:10:40.962Z,76.1
2018-08-11T08:11:01.350Z,74.7
2018-08-11T08:11:21.680Z,73.9
2018-08-11T08:11:42.058Z,73.5
2018-08-11T08:12:02.319Z,73
2018-08-11T08:12:22.527Z,73.3
2018-08-11T08:12:42.791Z,74.3
2018-08-11T08:13:03.022Z,74.9
2018-08-11T08:13:23.223Z,74.7
2018-08-11T08:13:43.598Z,75.3
2018-08-11T08:14:03.943Z,75.5
2018-08-11T08:14:24.184Z,75.2
2018-08-11T08:14:44.535Z,75.2
2018-08-11T08:15:04.761Z,76.7
2018-08-11T08:15:25.198Z,77.4
2018-08-11T08:15:45.481Z,76.9
2018-08-11T08:16:06.327Z,76.9
2018-08-11T08:16:26.642Z,76
2018-08-11T08:16:46.995Z,75
2018-08-11T08:17:07.393Z,74.7
2018-08-11T08:17:27.700Z,75
2018-08-11T08:17:48.008Z,76
2018-08-11T08:18:09.397Z,77.1
2018-08-11T08:18:29.733Z,76.6
2018-08-11T08:18:50.001Z,76.6
2018-08-11T08:19:10.280Z,76
2018-08-11T08:19:30.449Z,75.7
2018-08-11T08:19:50.780Z,74.3
2018-08-11T08:20:11.040Z,73.6
2018-08-11T08:20:31.346Z,73.8
2018-08-11T08:20:51.603Z,73.2
2018-08-11T08:21:11.873Z,72.8
2018-08-11T08:21:32.204Z,73.6
2018-08-11T08:21:52.548Z,74.1
2018-08-11T08:22:12.740Z,74.6
2018-08-11T08:22:32.962Z,74.9
2018-08-11T08:22:53.173Z,74.3
2018-08-11T08:23:13.407Z,74.4
2018-08-11T08:23:33.612Z,74.4
2018-08-11T08:23:53.919Z,73.9
2018-08-11T08:24:14.349Z,74.5
2018-08-11T08:24:34.546Z,73.6
2018-08-11T08:24:54.708Z,74.3
2018-08-11T08:25:15.017Z,73.8
2018-08-11T08:25:35.366Z,73.5
2018-08-11T08:25:55.673Z,72.6
2018-08-11T08:26:16.006Z,72.6
2018-08-11T08:26:36.646Z,71.4
2018-08-11T08:26:57.176Z,70.1
2018-08-11T08:27:17.460Z,71
2018-08-11T08:27:37.787Z,71.3
2018-08-11T08:27:57.953Z,71.9
2018-08-11T08:28:18.189Z,73.5
2018-08-11T08:28:38.433Z,73.5
2018-08-11T08:28:58.714Z,73.2
2018-08-11T08:29:18.969Z,73.2
2018-08-11T08:29:39.243Z,72.8
2018-08-11T08:29:59.585Z,69.5
2018-08-11T08:30:19.957Z,69.6
2018-08-11T08:30:40.121Z,70.4
2018-08-11T08:31:00.319Z,70
2018-08-11T08:31:20.578Z,69
2018-08-11T08:31:40.798Z,69
2018-08-11T08:32:01.056Z,68.7
2018-08-11T08:32:21.328Z,69.2
2018-08-11T08:32:41.565Z,69.6
2018-08-11T08:33:01.822Z,70.1
2018-08-11T08:33:22.004Z,69.4
2018-08-11T08:33:42.298Z,69.5
2018-08-11T08:34:02.690Z,69.1
2018-08-11T08:34:22.958Z,68.7
2018-08-11T08:34:43.312Z,68.9
2018-08-11T08:35:03.605Z,68.7
2018-08-11T08:35:23.878Z,67
2018-08-11T08:35:44.213Z,65.8
2018-08-11T08:36:04.539Z,65.7
2018-08-11T08:36:24.762Z,66.2
2018-08-11T08:36:45.089Z,66.4
2018-08-11T08:37:05.373Z,66
2018-08-11T08:37:25.613Z,65.9
2018-08-11T08:37:48.029Z,66.6
2018-08-11T08:38:08.907Z,66.3
2018-08-11T08:38:29.163Z,66.1
2018-08-11T08:38:49.394Z,65.9
2018-08-11T08:39:09.582Z,66
2018-08-11T08:39:29.827Z,65.9
2018-08-11T08:39:50.110Z,65.7
2018-08-11T08:40:10.274Z,65.6
2018-08-11T08:40:30.461Z,65.7
2018-08-11T08:40:50.834Z,65.7
2018-08-11T08:41:11.847Z,65.2
2018-08-11T08:41:32.173Z,65.2
2018-08-11T08:41:52.535Z,65.2
2018-08-11T08:42:12.997Z,65.9
2018-08-11T08:42:33.451Z,65.5
2018-08-11T08:42:53.765Z,64.7
2018-08-11T08:43:14.046Z,64.8
2018-08-11T08:43:34.459Z,65
2018-08-11T08:43:55.476Z,64.7
2018-08-11T08:44:15.903Z,64.6
2018-08-11T08:44:36.189Z,64.2
2018-08-11T08:44:56.681Z,64.3
2018-08-11T08:45:17.086Z,63
2018-08-11T08:45:37.368Z,63.2
2018-08-11T08:45:57.631Z,64
2018-08-11T08:46:17.803Z,63.6
2018-08-11T08:46:38.126Z,63.7
2018-08-11T08:46:58.506Z,64.3
2018-08-11T08:47:19.239Z,64.1
2018-08-11T08:47:39.660Z,64.3
2018-08-11T08:48:00.135Z,64.4
2018-08-11T08:48:20.488Z,64.2
2018-08-11T08:48:41.128Z,63.2
2018-08-11T08:49:09.908Z,62
2018-08-11T08:49:32.186Z,62.3
2018-08-11T08:49:53.028Z,62.3
2018-08-11T08:50:13.218Z,61.7
2018-08-11T08:50:33.686Z,61.9
2018-08-11T08:50:53.922Z,62
2018-08-11T08:51:14.488Z,62
2018-08-11T08:51:34.765Z,61.7
2018-08-11T08:51:55.076Z,61.4
2018-08-11T08:52:15.317Z,61.3
2018-08-11T08:52:35.547Z,60.6
2018-08-11T08:52:56.062Z,60.2
2018-08-11T08:53:16.340Z,60.5
2018-08-11T08:53:36.988Z,60.8
2018-08-11T08:53:57.740Z,61
2018-08-11T08:54:18.011Z,60.2
2018-08-11T08:54:38.550Z,59.5
2018-08-11T08:54:59.219Z,58.7
2018-08-11T08:55:19.526Z,60
2018-08-11T08:55:39.940Z,60.2
2018-08-11T08:56:00.282Z,60.2
2018-08-11T08:56:20.546Z,60.6
2018-08-11T08:56:40.785Z,60.7
2018-08-11T08:57:01.200Z,62
2018-08-11T08:57:21.764Z,62
2018-08-11T08:57:41.918Z,60.9
2018-08-11T08:58:02.284Z,61.1
2018-08-11T08:58:22.672Z,62.1
2018-08-11T08:58:42.989Z,62.6
2018-08-11T08:59:03.294Z,62.3
2018-08-11T08:59:23.586Z,62.5
2018-08-11T08:59:44.229Z,63.4
2018-08-11T09:00:04.427Z,63.1
2018-08-11T09:00:24.688Z,62.9
2018-08-11T09:00:45.880Z,62
2018-08-11T09:01:06.067Z,62.2
2018-08-11T09:01:26.268Z,62.3
2018-08-11T09:01:46.494Z,62.9
2018-08-11T09:02:06.714Z,63.4
2018-08-11T09:02:27.029Z,63.2
2018-08-11T09:02:47.477Z,63.3
2018-08-11T09:03:07.921Z,63.3
2018-08-11T09:03:28.146Z,63.3
2018-08-11T09:03:48.394Z,63.2
2018-08-11T09:04:08.726Z,63.4
2018-08-11T09:04:28.997Z,63.3
2018-08-11T09:04:49.548Z,63
2018-08-11T09:05:10.149Z,62.2
2018-08-11T09:05:30.167Z,62.2
2018-08-11T09:05:50.530Z,62.5
2018-08-11T09:06:10.688Z,62.5
2018-08-11T09:06:30.810Z,62.9
2018-08-11T09:06:51.135Z,63.3
2018-08-11T09:07:11.439Z,63.2
2018-08-11T09:07:31.673Z,63.2
2018-08-11T09:07:52.019Z,63.3
2018-08-11T09:08:12.319Z,63.3
2018-08-11T09:08:32.507Z,63.5
2018-08-11T09:08:52.710Z,63.2
2018-08-11T09:09:12.985Z,63.2
2018-08-11T09:09:33.363Z,62.6
2018-08-11T09:09:53.711Z,62.5
2018-08-11T09:10:14.164Z,63.1
2018-08-11T09:10:34.541Z,63
2018-08-11T09:10:54.788Z,62.2
2018-08-11T09:11:15.066Z,62.9
2018-08-11T09:11:35.257Z,62.1
2018-08-11T09:11:55.594Z,62.7
2018-08-11T09:12:15.842Z,63.1
2018-08-11T09:12:36.160Z,63.6
2018-08-11T09:12:56.432Z,63.1
2018-08-11T09:13:16.639Z,62.9
2018-08-11T09:13:36.913Z,64.4
2018-08-11T09:13:57.440Z,64.3
2018-08-11T09:14:17.690Z,64.1
2018-08-11T09:19:16.744Z,62.6
2018-08-11T09:19:37.069Z,60.9
2018-08-11T09:19:57.309Z,59.8
2018-08-11T09:20:17.559Z,59.8
2018-08-11T09:20:37.944Z,60.2
2018-08-11T09:20:58.207Z,61
2018-08-11T09:21:18.511Z,60.7
2018-08-11T09:21:38.792Z,60.8
2018-08-11T09:21:59.604Z,61.2
2018-08-11T09:22:19.827Z,61
2018-08-11T09:22:40.097Z,61
2018-08-11T09:23:00.582Z,61.5
2018-08-11T09:23:20.869Z,60
2018-08-11T09:23:41.275Z,59.8
2018-08-11T09:24:01.606Z,60.3
2018-08-11T09:24:21.902Z,61
2018-08-11T09:24:42.129Z,61
2018-08-11T09:25:02.384Z,60.7
2018-08-11T09:25:22.847Z,62.3
2018-08-11T09:25:43.146Z,62.3
2018-08-11T09:26:03.850Z,63.1
2018-08-11T09:26:24.245Z,64
2018-08-11T09:33:53.541Z,74.4
2018-08-11T09:34:13.965Z,75.2
2018-08-11T09:34:34.487Z,75.3
2018-08-11T09:34:54.978Z,74.1
2018-08-11T09:35:15.350Z,73.5
2018-08-11T09:35:35.598Z,73.4
2018-08-11T09:35:56.047Z,73.4
2018-08-11T09:36:16.368Z,76
2018-08-11T09:36:36.717Z,76.1
2018-08-11T09:36:57.202Z,76.9
2018-08-11T09:37:17.597Z,77.9
2018-08-11T09:37:37.881Z,78.2
2018-08-11T09:37:58.284Z,77.2
2018-08-11T09:38:18.587Z,77.7
2018-08-11T09:38:38.813Z,76.6
2018-08-11T09:39:00.941Z,76
2018-08-11T09:39:21.264Z,77.6
2018-08-11T09:39:42.547Z,77.9
2018-08-11T09:40:03.414Z,76.5
2018-08-11T09:40:23.698Z,76.6
2018-08-11T09:40:43.969Z,76.6
2018-08-11T09:41:04.225Z,75.8
2018-08-11T09:41:24.397Z,75
2018-08-11T09:41:44.785Z,76.1
2018-08-11T09:42:05.130Z,76.3
2018-08-11T09:42:25.473Z,74.2
2018-08-11T09:42:46.955Z,74.7
2018-08-11T09:43:07.284Z,74.9
2018-08-11T09:43:28.288Z,74.7
2018-08-11T09:43:48.649Z,74
2018-08-11T09:44:08.938Z,74.1
2018-08-11T09:44:29.158Z,74.9
2018-08-11T09:44:49.375Z,74
2018-08-11T09:45:09.654Z,75.5
2018-08-11T09:45:29.843Z,74.9
2018-08-11T09:45:50.283Z,75.9
2018-08-11T09:46:10.332Z,75.8
2018-08-11T09:46:30.623Z,75.6
2018-08-11T09:46:50.862Z,74.3
2018-08-11T09:47:11.977Z,72.5
2018-08-11T09:47:32.195Z,72.4
2018-08-11T09:47:52.454Z,72.9
2018-08-11T09:48:12.697Z,73.5
2018-08-11T09:48:32.881Z,72.1
2018-08-11T09:48:53.807Z,69.9
2018-08-11T09:49:14.027Z,70
2018-08-11T09:49:34.321Z,70
2018-08-11T09:49:54.596Z,70.3
2018-08-11T09:50:15.135Z,70.3
2018-08-11T09:50:35.319Z,70.8
2018-08-11T09:50:55.552Z,72.3
2018-08-11T09:51:15.838Z,71.6
2018-08-11T09:51:36.192Z,72
2018-08-11T09:51:56.443Z,71
2018-08-11T09:52:16.611Z,69.6
2018-08-11T09:52:36.795Z,69.2
2018-08-11T09:52:57.008Z,68.9
2018-08-11T09:53:17.282Z,66.7
2018-08-11T09:53:37.456Z,67
2018-08-11T09:53:57.687Z,67
2018-08-11T09:54:18.015Z,65.7
2018-08-11T09:54:38.245Z,65.3
2018-08-11T09:54:58.445Z,64.7
2018-08-11T09:55:18.622Z,65.2
2018-08-11T09:55:38.906Z,62.7
2018-08-11T09:55:59.153Z,62.8
2018-08-11T09:56:19.861Z,63.9
2018-08-11T09:56:40.124Z,63.7
2018-08-11T09:57:00.343Z,62.4
2018-08-11T09:57:20.490Z,62.6
2018-08-11T09:57:40.732Z,62.5
2018-08-11T09:58:01.066Z,62.2
2018-08-11T09:58:21.258Z,62.3
2018-08-11T09:58:41.471Z,62.5
2018-08-11T09:59:01.776Z,60.8
2018-08-11T09:59:21.987Z,62.1
2018-08-11T09:59:42.140Z,60.8
2018-08-11T10:00:02.376Z,60.3
2018-08-11T10:00:22.611Z,61.1
2018-08-11T10:00:42.881Z,62.1
2018-08-11T10:01:03.100Z,60.8
2018-08-11T10:01:23.283Z,60.5
2018-08-11T10:01:43.546Z,60.4
2018-08-11T10:02:03.794Z,60.8
2018-08-11T10:02:23.964Z,60.7
2018-08-11T10:02:45.010Z,62
2018-08-11T10:03:05.297Z,60.3
2018-08-11T10:03:25.510Z,60.4
2018-08-11T10:03:45.752Z,59.4
2018-08-11T10:04:05.949Z,59.2
2018-08-11T10:04:26.127Z,60.3
2018-08-11T10:04:46.140Z,60.1
2018-08-11T10:05:06.455Z,60.2
2018-08-11T10:05:26.763Z,61
2018-08-11T10:05:47.083Z,60.5
2018-08-11T10:06:07.386Z,61.3
2018-08-11T10:06:27.742Z,60.9
2018-08-11T10:06:48.001Z,62.7
2018-08-11T10:07:08.225Z,62.3
2018-08-11T10:07:28.490Z,60.9
2018-08-11T10:07:48.770Z,61
2018-08-11T10:08:09.113Z,60.2
2018-08-11T10:08:29.427Z,61
2018-08-11T10:08:50.520Z,59.6
2018-08-11T10:09:10.875Z,60
2018-08-11T10:09:31.069Z,60.7
2018-08-11T10:09:51.263Z,62
2018-08-11T10:10:11.468Z,61.9
2018-08-11T10:10:31.784Z,61.9
2018-08-11T10:10:52.371Z,60.1
2018-08-11T10:11:13.098Z,60.1
2018-08-11T10:11:34.109Z,60.7
2018-08-11T10:11:54.340Z,61.6
2018-08-11T10:12:14.667Z,61.4
2018-08-11T10:12:34.976Z,60.6
2018-08-11T10:12:55.269Z,61.2
2018-08-11T10:13:15.417Z,61.1
2018-08-11T10:13:35.628Z,61.3
2018-08-11T10:13:56.245Z,61.7
2018-08-11T10:14:16.471Z,62.3
2018-08-11T10:14:36.681Z,62.9
2018-08-11T10:14:56.914Z,63.1
2018-08-11T10:15:17.101Z,63
2018-08-11T10:15:37.261Z,63.5
2018-08-11T10:15:57.465Z,64.8
2018-08-11T10:16:17.764Z,64
2018-08-11T10:16:39.121Z,64.2
2018-08-11T10:16:59.406Z,66
2018-08-11T10:17:19.573Z,65.6
2018-08-11T10:17:39.714Z,65.4
2018-08-11T10:17:59.991Z,63.5
2018-08-11T10:18:20.416Z,62.2